createdAt,value
2023-04-25T00:02:12.476Z,3.33
2023-04-25T00:04:43.345Z,3.37
2023-04-25T00:07:13.557Z,3.50
2023-04-25T00:09:44.464Z,3.35
2023-04-25T00:12:14.031Z,3.30
2023-04-25T00:14:43.844Z,3.60
2023-04-25T00:17:13.714Z,3.23
2023-04-25T00:19:45.674Z,4.12
2023-04-25T00:22:15.339Z,3.27
2023-04-25T00:24:45.294Z,3.30
2023-04-25T00:27:15.291Z,3.93
2023-04-25T00:29:45.097Z,4.10
2023-04-25T00:32:14.995Z,4.10
2023-04-25T00:34:44.878Z,3.90
2023-04-25T00:37:15.011Z,3.57
2023-04-25T00:39:44.849Z,4.60
2023-04-25T00:42:15.973Z,4.17
2023-04-25T00:44:46.917Z,4.10
2023-04-25T00:47:17.844Z,4.43
2023-04-25T00:49:47.800Z,4.40
2023-04-25T00:52:17.331Z,3.80
2023-04-25T00:54:47.580Z,4.57
2023-04-25T00:57:17.843Z,4.65
2023-04-25T00:59:48.423Z,4.33
2023-04-25T01:02:18.166Z,4.40
2023-04-25T01:04:48.739Z,5.00
2023-04-25T01:07:18.617Z,4.37
2023-04-25T01:09:49.052Z,5.27
2023-04-25T01:12:18.743Z,4.53
2023-04-25T01:14:48.697Z,4.43
2023-04-25T01:17:20.795Z,4.43
2023-04-25T01:19:51.760Z,4.97
2023-04-25T01:22:21.764Z,5.00
2023-04-25T01:24:51.925Z,5.00
2023-04-25T01:27:23.750Z,5.27
2023-04-25T01:29:53.957Z,5.15
2023-04-25T01:32:25.977Z,4.65
2023-04-25T01:34:57.673Z,5.10
2023-04-25T01:37:28.994Z,5.10
2023-04-25T01:39:59.036Z,4.37
2023-04-25T01:42:28.845Z,4.83
2023-04-25T01:44:58.954Z,4.30
2023-04-25T01:47:31.808Z,5.93
2023-04-25T01:50:01.682Z,4.77
2023-04-25T01:52:32.070Z,5.63
2023-04-25T01:55:04.533Z,5.33
2023-04-25T01:57:36.507Z,5.40
2023-04-25T02:00:10.131Z,5.12
2023-04-25T02:02:42.239Z,5.20
2023-04-25T02:05:14.019Z,4.75
2023-04-25T02:07:45.656Z,6.17
2023-04-25T02:10:15.908Z,4.97
2023-04-25T02:12:47.141Z,5.35
2023-04-25T02:15:18.442Z,5.10
2023-04-25T02:17:49.957Z,5.43
2023-04-25T02:20:20.942Z,5.47
2023-04-25T02:22:50.961Z,5.40
2023-04-25T02:25:21.703Z,5.87
2023-04-25T02:27:52.381Z,6.10
2023-04-25T02:30:22.257Z,6.15
2023-04-25T02:32:52.159Z,5.33
2023-04-25T02:35:21.829Z,5.58
2023-04-25T02:37:51.734Z,5.80
2023-04-25T02:40:21.398Z,6.03
2023-04-25T02:42:51.196Z,6.47
2023-04-25T02:45:21.513Z,5.30
2023-04-25T02:47:52.647Z,5.37
2023-04-25T02:50:22.817Z,5.22
2023-04-25T02:52:52.651Z,6.07
2023-04-25T02:55:26.253Z,6.03
2023-04-25T02:57:56.420Z,5.37
2023-04-25T03:00:31.236Z,4.97
2023-04-25T03:03:01.377Z,5.83
2023-04-25T03:05:31.379Z,5.40
2023-04-25T03:08:02.154Z,5.75
2023-04-25T03:10:32.249Z,6.10
2023-04-25T03:13:03.840Z,6.03
2023-04-25T03:15:33.662Z,5.20
2023-04-25T03:18:06.731Z,5.72
2023-04-25T03:20:36.620Z,5.93
2023-04-25T03:23:06.304Z,5.70
2023-04-25T03:25:36.446Z,5.90
2023-04-25T03:28:08.052Z,6.20
2023-04-25T03:30:38.217Z,6.20
2023-04-25T03:33:08.162Z,5.83
2023-04-25T03:35:37.688Z,6.75
2023-04-25T03:38:09.838Z,5.67
2023-04-25T03:40:41.362Z,5.67
2023-04-25T03:43:12.864Z,6.50
2023-04-25T03:45:44.615Z,6.90
2023-04-25T03:48:14.287Z,5.80
2023-04-25T03:50:44.171Z,6.10
2023-04-25T03:53:14.079Z,5.83
2023-04-25T03:55:45.706Z,6.50
2023-04-25T03:58:15.835Z,6.40
2023-04-25T04:00:45.847Z,5.57
2023-04-25T04:03:15.937Z,6.97
2023-04-25T04:05:47.554Z,6.30
2023-04-25T04:08:17.533Z,6.40
2023-04-25T04:10:47.336Z,6.17
2023-04-25T04:13:17.181Z,5.57
2023-04-25T04:15:47.647Z,6.20
2023-04-25T04:18:18.206Z,6.60
2023-04-25T04:20:48.131Z,6.33
2023-04-25T04:23:18.034Z,7.60
2023-04-25T04:25:48.912Z,6.57
2023-04-25T04:28:32.303Z,6.90
2023-04-25T04:31:06.836Z,7.93
2023-04-25T04:33:37.806Z,7.00
2023-04-25T04:36:10.816Z,6.28
2023-04-25T04:38:42.090Z,6.97
2023-04-25T04:41:13.695Z,7.00
2023-04-25T04:43:45.687Z,6.70
2023-04-25T04:46:26.512Z,6.92
2023-04-25T04:48:58.064Z,5.90
2023-04-25T04:51:32.754Z,6.87
2023-04-25T04:54:06.526Z,7.10
2023-04-25T04:56:40.470Z,7.13
2023-04-25T04:59:20.904Z,6.63
2023-04-25T05:02:03.965Z,6.20
2023-04-25T05:04:47.895Z,6.83
2023-04-25T05:07:22.295Z,6.47
2023-04-25T05:10:12.076Z,6.94
2023-04-25T05:12:49.357Z,5.20
2023-04-25T05:15:36.892Z,6.20
2023-04-25T05:18:12.109Z,5.03
2023-04-25T05:20:46.355Z,5.10
2023-04-25T05:23:20.702Z,5.50
2023-04-25T05:26:04.327Z,4.90
2023-04-25T05:28:35.899Z,4.93
2023-04-25T05:31:25.445Z,5.27
2023-04-25T05:33:57.063Z,4.67
2023-04-25T05:36:29.041Z,5.28
2023-04-25T05:38:59.021Z,4.53
2023-04-25T05:41:45.976Z,4.90
2023-04-25T05:44:35.662Z,4.47
2023-04-25T05:47:18.995Z,4.80
2023-04-25T05:49:59.331Z,3.90
2023-04-25T05:52:30.877Z,4.30
2023-04-25T05:55:08.592Z,3.80
2023-04-25T05:57:40.885Z,3.63
2023-04-25T06:02:55.576Z,3.10
2023-04-25T06:05:26.350Z,3.13
2023-04-25T06:07:56.217Z,3.07
2023-04-25T06:10:26.133Z,2.90
2023-04-25T06:12:56.013Z,3.37
2023-04-25T06:15:28.425Z,2.70
2023-04-25T06:17:57.924Z,3.00
2023-04-25T06:20:31.057Z,2.17
2023-04-25T06:23:01.654Z,2.70
2023-04-25T06:25:42.277Z,2.40
2023-04-25T06:28:12.224Z,2.37
2023-04-25T06:30:42.283Z,2.17
2023-04-25T06:33:13.958Z,2.57
2023-04-25T06:35:44.048Z,2.40
2023-04-25T06:38:15.874Z,1.92
2023-04-25T06:40:47.479Z,1.73
2023-04-25T06:43:17.716Z,1.80
2023-04-25T06:45:55.186Z,2.10
2023-04-25T06:48:25.433Z,1.92
2023-04-25T06:50:57.419Z,1.50
2023-04-25T06:53:27.356Z,2.23
2023-04-25T06:55:58.917Z,1.83
2023-04-25T06:58:30.808Z,1.72
2023-04-25T07:01:14.014Z,1.65
2023-04-25T07:03:44.081Z,1.90
2023-04-25T07:06:15.679Z,2.05
2023-04-25T07:08:45.590Z,2.67
2023-04-25T07:11:15.541Z,1.77
2023-04-25T07:13:46.093Z,1.67
2023-04-25T07:16:16.226Z,2.50
2023-04-25T07:18:46.258Z,1.53
2023-04-25T07:21:16.459Z,2.27
2023-04-25T07:23:47.320Z,1.60
2023-04-25T07:26:19.032Z,2.03
2023-04-25T07:29:06.867Z,2.03
2023-04-25T07:31:36.935Z,1.77
2023-04-25T07:34:06.807Z,1.97
2023-04-25T07:36:37.346Z,1.93
2023-04-25T07:39:07.546Z,1.67
2023-04-25T07:41:37.372Z,1.60
2023-04-25T07:44:09.389Z,2.27
2023-04-25T07:46:39.186Z,1.63
2023-04-25T07:49:09.638Z,1.83
2023-04-25T07:51:39.821Z,1.52
2023-04-25T07:54:16.610Z,2.08
2023-04-25T07:56:52.501Z,1.43
2023-04-25T07:59:19.354Z,1.67
2023-04-25T08:01:49.727Z,2.00
2023-04-25T08:04:20.168Z,1.37
2023-04-25T08:06:53.331Z,2.10
2023-04-25T08:09:25.103Z,1.03
2023-04-25T08:11:55.434Z,1.50
2023-04-25T08:14:26.961Z,1.37
2023-04-25T08:16:57.149Z,1.15
2023-04-25T08:19:27.417Z,1.60
2023-04-25T08:21:57.351Z,1.60
2023-04-25T08:24:29.303Z,1.20
2023-04-25T08:26:59.906Z,0.93
2023-04-25T08:29:30.345Z,1.77
2023-04-25T08:31:59.968Z,1.55
2023-04-25T08:34:30.029Z,1.27
2023-04-25T08:37:01.327Z,1.90
2023-04-25T08:39:32.823Z,1.50
2023-04-25T08:42:09.003Z,1.17
2023-04-25T08:44:39.640Z,1.00
2023-04-25T08:47:09.368Z,1.05
2023-04-25T08:49:48.190Z,1.20
2023-04-25T08:52:21.545Z,1.70
2023-04-25T08:54:53.038Z,1.13
2023-04-25T08:57:24.468Z,1.60
2023-04-25T08:59:56.298Z,1.22
2023-04-25T09:02:27.200Z,1.10
2023-04-25T09:04:58.446Z,1.30
2023-04-25T09:07:29.452Z,0.80
2023-04-25T09:10:00.945Z,1.27
2023-04-25T09:12:32.249Z,1.20
2023-04-25T09:15:10.354Z,0.95
2023-04-25T09:18:00.471Z,0.95
2023-04-25T09:20:35.324Z,0.88
2023-04-25T09:23:08.025Z,1.20
2023-04-25T09:25:40.570Z,1.03
2023-04-25T09:28:14.024Z,1.10
2023-04-25T09:30:44.209Z,1.10
2023-04-25T09:33:28.793Z,1.30
2023-04-25T09:36:08.202Z,1.10
2023-04-25T09:38:51.607Z,1.20
2023-04-25T09:41:26.922Z,1.13
2023-04-25T09:44:02.469Z,0.90
2023-04-25T09:46:40.751Z,1.37
2023-04-25T09:49:12.270Z,1.20
2023-04-25T09:51:59.144Z,1.17
2023-04-25T09:54:30.457Z,1.10
2023-04-25T09:57:05.085Z,1.20
2023-04-25T09:59:37.676Z,1.00
2023-04-25T10:02:10.370Z,0.63
2023-04-25T10:04:41.345Z,1.10
2023-04-25T10:07:16.264Z,1.30
2023-04-25T10:09:51.273Z,0.77
2023-04-25T10:12:21.151Z,1.03
2023-04-25T10:14:50.969Z,1.00
2023-04-25T10:17:22.488Z,0.93
2023-04-25T10:19:54.276Z,0.77
2023-04-25T10:22:29.929Z,0.90
2023-04-25T10:25:00.385Z,0.80
2023-04-25T10:27:30.835Z,0.90
2023-04-25T10:30:11.140Z,0.87
2023-04-25T10:32:41.031Z,0.90
2023-04-25T10:35:21.345Z,0.68
2023-04-25T10:38:01.528Z,0.73
2023-04-25T10:40:32.553Z,0.90
2023-04-25T10:43:39.424Z,0.50
2023-04-25T10:46:25.855Z,0.85
2023-04-25T10:48:57.690Z,1.17
2023-04-25T10:51:34.553Z,0.70
2023-04-25T10:54:09.210Z,1.33
2023-04-25T10:56:42.108Z,1.00
2023-04-25T10:59:17.385Z,0.77
2023-04-25T11:01:50.316Z,1.10
2023-04-25T11:04:25.891Z,1.20
2023-04-25T11:07:06.372Z,0.93
2023-04-25T11:09:35.745Z,1.85
2023-04-25T11:12:05.956Z,1.30
2023-04-25T11:14:36.147Z,1.35
2023-04-25T11:17:07.111Z,1.20
2023-04-25T11:19:37.239Z,1.20
2023-04-25T11:22:08.672Z,1.20
2023-04-25T11:24:39.109Z,0.95
2023-04-25T11:27:09.204Z,0.90
2023-04-25T11:29:39.304Z,0.93
2023-04-25T11:32:09.663Z,0.90
2023-04-25T11:34:39.809Z,1.00
2023-04-25T11:37:09.695Z,0.73
2023-04-25T11:39:40.084Z,0.98
2023-04-25T11:42:13.805Z,1.30
2023-04-25T11:44:42.620Z,0.85
2023-04-25T11:47:12.420Z,1.40
2023-04-25T11:49:42.505Z,0.90
2023-04-25T11:52:12.846Z,0.90
2023-04-25T11:54:43.224Z,0.75
2023-04-25T11:57:14.066Z,1.40
2023-04-25T11:59:44.173Z,1.00
2023-04-25T12:02:17.385Z,1.00
2023-04-25T12:04:47.915Z,1.10
2023-04-25T12:07:19.738Z,0.90
2023-04-25T12:09:53.178Z,1.15
2023-04-25T12:12:22.979Z,1.63
2023-04-25T12:14:53.074Z,1.25
2023-04-25T12:17:24.452Z,1.40
2023-04-25T12:19:54.267Z,1.00
2023-04-25T12:22:25.862Z,1.00
2023-04-25T12:24:57.875Z,1.00
2023-04-25T12:27:28.465Z,1.23
2023-04-25T12:29:59.354Z,1.00
2023-04-25T12:32:29.509Z,1.25
2023-04-25T12:34:59.370Z,0.93
2023-04-25T12:37:31.827Z,1.05
2023-04-25T12:40:01.527Z,0.80
2023-04-25T12:42:31.791Z,0.75
2023-04-25T12:45:01.573Z,1.00
2023-04-25T12:47:31.338Z,1.10
2023-04-25T12:50:01.490Z,0.80
2023-04-25T12:52:30.999Z,1.10
2023-04-25T12:55:01.073Z,1.10
2023-04-25T12:57:31.255Z,0.98
2023-04-25T13:00:01.487Z,1.47
2023-04-25T13:02:31.742Z,0.80
2023-04-25T13:05:01.517Z,1.20
2023-04-25T13:07:33.502Z,0.90
2023-04-25T13:10:04.090Z,0.50
2023-04-25T13:12:34.171Z,0.95
2023-04-25T13:15:04.512Z,0.80
2023-04-25T13:17:34.680Z,0.78
2023-04-25T13:20:06.754Z,0.68
2023-04-25T13:22:40.387Z,0.88
2023-04-25T13:25:10.692Z,1.00
2023-04-25T13:27:41.548Z,1.17
2023-04-25T13:30:13.124Z,1.00
2023-04-25T13:32:43.059Z,0.80
2023-04-25T13:35:14.834Z,1.00
2023-04-25T13:37:44.671Z,0.70
2023-04-25T13:40:15.541Z,0.90
2023-04-25T13:42:46.305Z,0.80
2023-04-25T13:45:16.213Z,0.80
2023-04-25T13:47:46.700Z,0.80
2023-04-25T13:50:18.456Z,0.58
2023-04-25T13:52:48.702Z,0.70
2023-04-25T13:55:18.393Z,0.80
2023-04-25T13:57:48.004Z,0.90
2023-04-25T14:00:18.159Z,1.27
2023-04-25T14:02:51.364Z,0.83
2023-04-25T14:05:21.667Z,0.93
2023-04-25T14:07:52.121Z,0.70
2023-04-25T14:10:22.309Z,0.80
2023-04-25T14:12:52.606Z,1.05
2023-04-25T14:15:22.338Z,0.90
2023-04-25T14:17:52.468Z,0.78
2023-04-25T14:20:22.360Z,1.20
2023-04-25T14:22:53.035Z,0.60
2023-04-25T14:25:23.919Z,0.62
2023-04-25T14:27:54.154Z,0.70
2023-04-25T14:30:23.928Z,0.60
2023-04-25T14:32:54.296Z,0.80
2023-04-25T14:35:24.783Z,0.70
2023-04-25T14:37:55.923Z,1.15
2023-04-25T14:40:25.973Z,1.00
2023-04-25T14:42:55.913Z,0.70
2023-04-25T14:45:25.818Z,1.20
2023-04-25T14:47:56.911Z,1.02
2023-04-25T14:50:26.794Z,0.73
2023-04-25T14:52:58.541Z,0.80
2023-04-25T14:55:28.895Z,1.03
2023-04-25T14:57:59.039Z,0.80
2023-04-25T15:00:28.905Z,1.07
2023-04-25T15:03:00.122Z,1.25
2023-04-25T15:05:30.226Z,1.40
2023-04-25T15:08:01.273Z,1.70
2023-04-25T15:10:31.186Z,0.93
2023-04-25T15:13:01.679Z,1.20
2023-04-25T15:15:31.617Z,1.00
2023-04-25T15:18:01.934Z,0.90
2023-04-25T15:20:32.338Z,0.90
2023-04-25T15:23:04.195Z,0.98
2023-04-25T15:25:33.986Z,0.90
2023-04-25T15:28:04.106Z,1.00
2023-04-25T15:30:33.612Z,1.00
2023-04-25T15:33:03.856Z,1.15
2023-04-25T15:35:36.391Z,0.70
2023-04-25T15:38:06.855Z,1.55
2023-04-25T15:40:36.638Z,1.42
2023-04-25T15:43:07.140Z,1.10
2023-04-25T15:45:37.870Z,1.10
2023-04-25T15:48:08.589Z,1.15
2023-04-25T15:50:38.474Z,0.97
2023-04-25T15:53:08.624Z,0.70
2023-04-25T15:55:38.461Z,1.20
2023-04-25T15:58:10.064Z,1.27
2023-04-25T16:00:40.395Z,1.00
2023-04-25T16:03:11.451Z,0.93
2023-04-25T16:05:41.686Z,1.17
2023-04-25T16:08:11.879Z,0.82
2023-04-25T16:10:42.167Z,1.30
2023-04-25T16:13:12.714Z,1.02
2023-04-25T16:15:42.536Z,0.80
2023-04-25T16:18:13.880Z,1.50
2023-04-25T16:20:43.704Z,1.20
2023-04-25T16:23:13.514Z,1.00
2023-04-25T16:25:44.415Z,1.00
2023-04-25T16:28:16.503Z,0.82
2023-04-25T16:30:46.498Z,0.90
2023-04-25T16:33:16.709Z,0.80
2023-04-25T16:35:46.779Z,1.00
2023-04-25T16:38:16.625Z,0.82
2023-04-25T16:40:46.451Z,1.37
2023-04-25T16:43:18.185Z,1.00
2023-04-25T16:45:47.804Z,1.30
2023-04-25T16:48:19.127Z,1.20
2023-04-25T16:50:48.902Z,1.20
2023-04-25T16:53:18.719Z,1.40
2023-04-25T16:55:48.879Z,1.50
2023-04-25T16:58:20.489Z,0.93
2023-04-25T17:00:50.148Z,1.20
2023-04-25T17:03:20.382Z,1.40
2023-04-25T17:05:54.014Z,1.37
2023-04-25T17:08:23.590Z,0.90
2023-04-25T17:10:53.938Z,1.15
2023-04-25T17:13:31.185Z,1.30
2023-04-25T17:15:55.613Z,1.53
2023-04-25T17:18:26.033Z,1.30
2023-04-25T17:20:56.719Z,1.30
2023-04-25T17:23:26.917Z,1.17
2023-04-25T17:25:56.789Z,1.47
2023-04-25T17:28:26.630Z,0.83
2023-04-25T17:30:57.708Z,1.40
2023-04-25T17:33:28.609Z,1.37
2023-04-25T17:35:58.844Z,1.50
2023-04-25T17:38:28.917Z,1.27
2023-04-25T17:40:59.478Z,1.15
2023-04-25T17:43:29.429Z,1.27
2023-04-25T17:45:59.545Z,1.03
2023-04-25T17:48:31.629Z,1.15
2023-04-25T17:51:03.629Z,1.60
2023-04-25T17:53:33.813Z,1.60
2023-04-25T17:56:05.270Z,1.67
2023-04-25T17:58:36.248Z,1.40
2023-04-25T18:01:06.181Z,1.10
2023-04-25T18:03:38.034Z,1.10
2023-04-25T18:06:07.953Z,1.53
2023-04-25T18:08:38.052Z,1.70
2023-04-25T18:11:07.940Z,1.27
2023-04-25T18:13:38.986Z,1.20
2023-04-25T18:16:09.176Z,1.90
2023-04-25T18:18:40.922Z,1.50
2023-04-25T18:21:11.781Z,1.23
2023-04-25T18:23:41.936Z,1.45
2023-04-25T18:26:12.148Z,1.10
2023-04-25T18:28:42.215Z,1.17
2023-04-25T18:31:12.200Z,1.50
2023-04-25T18:33:42.461Z,1.10
2023-04-25T18:36:12.339Z,1.20
2023-04-25T18:38:42.447Z,1.22
2023-04-25T18:41:34.390Z,1.43
2023-04-25T18:43:44.806Z,1.25
2023-04-25T18:46:14.685Z,1.40
2023-04-25T18:48:45.372Z,1.50
2023-04-25T18:51:15.235Z,1.73
2023-04-25T18:53:46.176Z,1.30
2023-04-25T18:56:16.043Z,1.73
2023-04-25T18:58:46.621Z,2.20
2023-04-25T19:01:16.473Z,1.50
2023-04-25T19:03:48.586Z,1.60
2023-04-25T19:06:18.441Z,1.70
2023-04-25T19:08:50.689Z,1.77
2023-04-25T19:11:21.577Z,1.37
2023-04-25T19:13:52.307Z,1.40
2023-04-25T19:16:22.233Z,1.77
2023-04-25T19:18:54.280Z,1.70
2023-04-25T19:21:24.759Z,1.50
2023-04-25T19:23:55.165Z,1.80
2023-04-25T19:26:25.523Z,1.50
2023-04-25T19:29:11.383Z,1.62
2023-04-25T19:31:43.315Z,1.37
2023-04-25T19:34:13.783Z,1.20
2023-04-25T19:36:44.185Z,1.60
2023-04-25T19:39:14.480Z,1.92
2023-04-25T19:41:44.402Z,1.53
2023-04-25T19:44:14.605Z,1.47
2023-04-25T19:46:45.750Z,1.00
2023-04-25T19:49:16.260Z,1.55
2023-04-25T19:51:46.294Z,2.00
2023-04-25T19:54:16.407Z,2.00
2023-04-25T19:56:46.213Z,2.10
2023-04-25T19:59:16.410Z,1.95
2023-04-25T20:01:46.244Z,2.10
2023-04-25T20:04:18.449Z,2.20
2023-04-25T20:06:48.358Z,1.80
2023-04-25T20:09:18.256Z,1.70
2023-04-25T20:11:48.207Z,2.07
2023-04-25T20:14:19.031Z,1.70
2023-04-25T20:16:48.971Z,1.87
2023-04-25T20:19:19.529Z,1.93
2023-04-25T20:21:49.448Z,1.60
2023-04-25T20:24:21.049Z,2.17
2023-04-25T20:26:51.099Z,1.67
2023-04-25T20:29:20.898Z,2.27
2023-04-25T20:31:50.894Z,2.30
2023-04-25T20:34:21.999Z,2.07
2023-04-25T20:36:52.819Z,2.53
2023-04-25T20:39:22.787Z,2.40
2023-04-25T20:41:53.351Z,2.58
2023-04-25T20:44:23.661Z,2.50
2023-04-25T20:46:53.622Z,2.47
2023-04-25T20:49:23.426Z,2.43
2023-04-25T20:51:53.761Z,2.20
2023-04-25T20:54:24.113Z,2.47
2023-04-25T20:56:53.941Z,1.90
2023-04-25T20:59:23.911Z,2.23
2023-04-25T21:01:57.227Z,2.20
2023-04-25T21:04:27.234Z,2.75
2023-04-25T21:06:57.236Z,2.60
2023-04-25T21:09:27.015Z,2.60
2023-04-25T21:11:56.816Z,2.90
2023-04-25T21:14:26.975Z,2.85
2023-04-25T21:16:57.127Z,2.83
2023-04-25T21:19:26.963Z,3.10
2023-04-25T21:21:56.839Z,3.00
2023-04-25T21:24:27.290Z,3.07
2023-04-25T21:26:57.283Z,2.80
2023-04-25T21:29:27.473Z,3.05
2023-04-25T21:31:57.350Z,3.33
2023-04-25T21:34:27.478Z,3.58
2023-04-25T21:36:58.242Z,3.00
2023-04-25T21:39:28.689Z,2.97
2023-04-25T21:41:58.563Z,2.63
2023-04-25T21:44:30.211Z,3.33
2023-04-25T21:47:00.051Z,3.83
2023-04-25T21:49:29.717Z,3.37
2023-04-25T21:52:00.147Z,3.73
2023-04-25T21:54:29.923Z,3.15
2023-04-25T21:56:59.770Z,3.53
2023-04-25T21:59:29.654Z,3.33
2023-04-25T22:01:59.603Z,3.50
2023-04-25T22:04:29.552Z,4.10
2023-04-25T22:06:59.664Z,3.00
2023-04-25T22:09:29.908Z,3.52
2023-04-25T22:12:01.324Z,3.23
2023-04-25T22:14:31.614Z,3.10
2023-04-25T22:17:01.709Z,3.70
2023-04-25T22:19:31.592Z,3.63
2023-04-25T22:22:01.410Z,4.03
2023-04-25T22:24:31.579Z,3.85
2023-04-25T22:27:02.430Z,4.00
2023-04-25T22:29:32.863Z,4.30
2023-04-25T22:32:02.702Z,3.90
2023-04-25T22:34:32.363Z,3.83
2023-04-25T22:37:02.135Z,3.73
2023-04-25T22:39:32.015Z,4.17
2023-04-25T22:42:02.521Z,4.17
2023-04-25T22:44:32.754Z,3.58
2023-04-25T22:47:02.497Z,3.95
2023-04-25T22:49:32.835Z,4.47
2023-04-25T22:52:04.216Z,4.10
2023-04-25T22:54:34.054Z,4.83
2023-04-25T22:57:06.902Z,5.27
2023-04-25T22:59:36.752Z,4.73
2023-04-25T23:02:07.719Z,5.30
2023-04-25T23:04:38.049Z,5.70
2023-04-25T23:07:08.292Z,6.17
2023-04-25T23:09:38.129Z,4.97
2023-04-25T23:12:08.356Z,5.53
2023-04-25T23:14:38.457Z,5.33
2023-04-25T23:17:09.145Z,5.93
2023-04-25T23:22:28.422Z,6.12
2023-04-25T23:24:58.428Z,6.23
2023-04-25T23:27:28.264Z,5.83
2023-04-25T23:29:58.244Z,6.50
2023-04-25T23:32:28.311Z,6.85
2023-04-25T23:34:58.284Z,6.60
2023-04-25T23:37:30.017Z,7.20
2023-04-25T23:39:59.895Z,7.73
2023-04-25T23:42:29.868Z,6.53
2023-04-25T23:44:59.736Z,6.83
2023-04-25T23:47:29.893Z,7.05
2023-04-25T23:49:59.488Z,6.80
2023-04-25T23:52:29.490Z,7.97
2023-04-25T23:54:59.480Z,7.00
2023-04-25T23:57:29.317Z,6.57
2023-04-25T23:59:59.306Z,5.93
